X  SluitMETAR luchtvaart weer gegevens      EHRD Rotterdam The Hague Airport

Temperatuur

6°C Temperatuur

0°C Dauwpunt

66% Vochtigheid



Wind

 8 KM/U

 5 MPH

 2 M/S

 4 KTS



20°
Noord Noord
Oost
Huidig weer

Helder Helder
Luchtdruk 1030.92 (hPa) - 30.44 (in)
Zicht 6.2 (mi) - 10 (km)
Vliegveld
Vliegveld code EHRD

Locatie Rotterdam The Hague Airport 30 (km)

Metar:
EHRD 151955Z AUTO 02004KT 340V050 9999 NSC 06/00 Q1031 NOSIG

Tijd: 15-04-2021 21:55